Okok Point, AK

11:31 PM AKST en Diciembre 04, 2016 (GMT -0900)
ASOS_HFM | | Change Station

Alt 150 ft 66.98 °N, 160.43 °W | Updated 36 minutes ago

Clear
Despejado
-15 ° F
Sensación térmica -33 ° F
N
9
Viento Variable Viento desde Este
Gusts 0.0 mph

Hoy
Alta -- | Baja -- ° F
--% Posibilidad de precipitaciones
Ayer
Alta -- | Baja -- ° F
Precip. -- pul
Presión 30.97 pul
Visibilidad 10.0 Millas
Nubes Despejado
Vientos helados -33 ° F
Punto de rocío -20 ° F
Humedad 76%
Precipitaciones pul
Espesor de la nieve No disponible.
12:04 PM 3:00 PM
Creciente, 29% visible
METAR PAIK 050801Z AUTO 09007KT 10SM CLR M26/M29 A3081 RMK AO2 SLP485 T12611289 FZRANO
Presión 30.97 pul
Visibilidad 10.0 Millas
Nubes Despejado
Vientos helados -33 ° F
Punto de rocío -20 ° F
Humedad 76%
Precipitaciones pul
Espesor de la nieve No disponible.
12:04 PM 3:00 PM
Creciente, 29% visible
METAR PAIK 050801Z AUTO 09007KT 10SM CLR M26/M29 A3081 RMK AO2 SLP485 T12611289 FZRANO

10-Day Weather Forecast

Almanac

Astronomía

Dec. 04, 2016 Salida Puesta
Hora real
Crepúsculo civil
Crepúsculo náutico
Crepúsculo astronómico
Luna
Horas de luz
Horas de luz
Tomorrow will be .
, % of the Moon is Illuminated

Extremos de hoy

Máximos del estado Bajos del estado

Community

WunderPhotos

Upload Photos

1,955,771 ¡fotos cargadas!

WunderBlog® & News

Nearby

Calidad del aire

  Calidad del aire Índice AQ Contaminante
Not available.

Grosos de nieve

Estación Profundido Altura

Actividad de terremotos

Ciudad Distance Mag. Tiempo y dato
Magnitud mínima muestra es 2,5.

Temperaturas de aguas costeras

Lugar Temperatura

Stations

Estaciones meteorológicas cercanas

Ubicación de la estación Temp. Vientos helados Punto de rocío Humedad Viento Precip. Alt Actualizado Tipo
                   

Watches & Warnings

There are currently no watches in effect.